createdAt,value
2019-02-02T00:01:02.603Z,49.58
2019-02-02T00:03:30.906Z,36.35
2019-02-02T00:05:59.036Z,39.48
2019-02-02T00:08:27.254Z,40.12
2019-02-02T00:10:55.297Z,47.50
2019-02-02T00:13:23.614Z,46.08
2019-02-02T00:15:51.832Z,42.98
2019-02-02T00:18:20.026Z,38.23
2019-02-02T00:20:48.106Z,38.95
2019-02-02T00:23:16.106Z,40.40
2019-02-02T00:25:44.247Z,42.75
2019-02-02T00:28:12.429Z,43.75
2019-02-02T00:30:40.513Z,50.20
2019-02-02T00:33:08.619Z,51.70
2019-02-02T00:35:36.845Z,51.58
2019-02-02T00:38:04.990Z,33.98
2019-02-02T00:40:33.227Z,43.17
2019-02-02T00:43:01.387Z,41.80
2019-02-02T00:45:29.592Z,45.28
2019-02-02T00:47:57.685Z,43.38
2019-02-02T00:50:25.758Z,30.02
2019-02-02T00:52:53.846Z,32.45
2019-02-02T00:55:21.938Z,37.58
2019-02-02T00:57:54.042Z,38.23
2019-02-02T01:00:20.032Z,44.10
2019-02-02T01:02:47.998Z,39.75
2019-02-02T01:05:16.516Z,44.08
2019-02-02T01:07:44.505Z,39.90
2019-02-02T01:10:16.627Z,41.10
2019-02-02T01:12:44.712Z,43.95
2019-02-02T01:15:12.750Z,37.67
2019-02-02T01:17:40.790Z,36.93
2019-02-02T01:20:09.546Z,47.95
2019-02-02T01:22:37.602Z,44.40
2019-02-02T01:25:05.988Z,43.00
2019-02-02T01:27:34.016Z,42.40
2019-02-02T01:30:02.028Z,44.55
2019-02-02T01:32:30.071Z,39.55
2019-02-02T01:34:58.015Z,40.40
2019-02-02T01:37:26.059Z,52.40
2019-02-02T01:39:54.155Z,49.05
2019-02-02T01:42:22.154Z,28.77
2019-02-02T01:44:50.221Z,41.48
2019-02-02T01:47:18.221Z,30.92
2019-02-02T01:49:46.215Z,40.65
2019-02-02T01:52:14.287Z,39.38
2019-02-02T01:54:42.285Z,37.33
2019-02-02T01:57:10.299Z,35.70
2019-02-02T01:59:38.325Z,41.73
2019-02-02T02:02:06.375Z,43.45
2019-02-02T02:04:34.386Z,34.40
2019-02-02T02:07:02.699Z,37.83
2019-02-02T02:09:30.785Z,42.13
2019-02-02T02:11:58.870Z,43.15
2019-02-02T02:14:26.886Z,40.08
2019-02-02T02:16:54.908Z,37.67
2019-02-02T02:19:22.946Z,40.45
2019-02-02T02:21:50.958Z,40.98
2019-02-02T02:24:18.942Z,41.50
2019-02-02T02:26:46.951Z,45.28
2019-02-02T02:29:15.034Z,43.50
2019-02-02T02:31:43.072Z,37.93
2019-02-02T02:34:11.100Z,39.85
2019-02-02T02:36:39.166Z,44.55
2019-02-02T02:39:09.108Z,38.65
2019-02-02T02:41:37.155Z,42.73
2019-02-02T02:44:05.177Z,42.93
2019-02-02T02:46:33.253Z,40.65
2019-02-02T02:49:01.255Z,49.27
2019-02-02T02:51:29.283Z,37.50
2019-02-02T02:53:57.304Z,35.17
2019-02-02T02:56:25.347Z,41.30
2019-02-02T02:58:53.449Z,41.95
2019-02-02T03:01:21.465Z,39.53
2019-02-02T03:03:49.608Z,39.13
2019-02-02T03:06:17.614Z,28.50
2019-02-02T03:08:45.786Z,39.50
2019-02-02T03:11:13.855Z,34.03
2019-02-02T03:13:41.846Z,25.52
2019-02-02T03:16:09.894Z,20.62
2019-02-02T03:18:37.971Z,22.90
2019-02-02T03:21:05.932Z,27.48
2019-02-02T03:23:33.940Z,23.85
2019-02-02T03:26:01.932Z,21.93
2019-02-02T03:28:29.953Z,21.87
2019-02-02T03:30:57.929Z,28.98
2019-02-02T03:33:25.986Z,25.45
2019-02-02T03:35:54.059Z,32.30
2019-02-02T03:38:22.093Z,31.27
2019-02-02T03:40:50.023Z,20.48
2019-02-02T03:43:18.063Z,27.15
2019-02-02T03:45:46.087Z,29.98
2019-02-02T03:48:14.083Z,28.05
2019-02-02T03:50:42.059Z,29.48
2019-02-02T03:53:10.049Z,26.52
2019-02-02T03:55:38.131Z,40.73
2019-02-02T03:58:06.171Z,36.65
2019-02-02T04:00:34.191Z,39.85
2019-02-02T04:03:02.271Z,45.75
2019-02-02T04:05:30.430Z,45.25
2019-02-02T04:07:58.439Z,48.95
2019-02-02T04:10:26.452Z,39.40
2019-02-02T04:12:54.426Z,42.50
2019-02-02T04:15:22.441Z,38.00
2019-02-02T04:17:50.487Z,41.23
2019-02-02T04:20:20.070Z,40.10
2019-02-02T04:22:48.130Z,42.93
2019-02-02T04:25:16.570Z,44.63
2019-02-02T04:27:44.609Z,46.75
2019-02-02T04:30:15.718Z,38.95
2019-02-02T04:32:43.786Z,41.20
2019-02-02T04:35:11.788Z,50.98
2019-02-02T04:37:40.036Z,46.40
2019-02-02T04:40:08.640Z,52.23
2019-02-02T04:42:36.675Z,41.45
2019-02-02T04:45:05.154Z,45.60
2019-02-02T04:47:33.265Z,36.93
2019-02-02T04:50:01.348Z,45.52
2019-02-02T04:52:29.367Z,40.40
2019-02-02T04:54:57.327Z,40.70
2019-02-02T04:57:25.447Z,52.30
2019-02-02T04:59:53.430Z,40.12
2019-02-02T05:02:21.625Z,48.75
2019-02-02T05:04:49.693Z,46.58
2019-02-02T05:07:17.772Z,49.77
2019-02-02T05:09:45.791Z,40.40
2019-02-02T05:12:13.937Z,40.92
2019-02-02T05:14:42.003Z,42.30
2019-02-02T05:17:10.035Z,38.85
2019-02-02T05:19:38.076Z,49.38
2019-02-02T05:22:06.032Z,49.40
2019-02-02T05:24:34.047Z,47.27
2019-02-02T05:27:02.146Z,46.33
2019-02-02T05:29:40.822Z,39.55
2019-02-02T05:32:00.339Z,47.83
2019-02-02T05:34:28.372Z,38.80
2019-02-02T05:36:56.454Z,43.85
2019-02-02T05:39:24.534Z,43.70
2019-02-02T05:41:52.544Z,42.60
2019-02-02T05:44:20.570Z,50.23
2019-02-02T05:46:48.560Z,42.88
2019-02-02T05:49:16.703Z,47.43
2019-02-02T05:51:44.712Z,45.10
2019-02-02T05:54:12.698Z,36.13
2019-02-02T05:56:40.772Z,41.50
2019-02-02T05:59:08.741Z,39.83
2019-02-02T06:01:36.967Z,42.40
2019-02-02T06:04:05.035Z,28.27
2019-02-02T06:06:33.045Z,39.18
2019-02-02T06:09:01.134Z,43.92
2019-02-02T06:11:29.239Z,46.68
2019-02-02T06:13:57.350Z,37.88
2019-02-02T06:16:25.331Z,43.28
2019-02-02T06:18:53.440Z,27.87
2019-02-02T06:21:21.503Z,36.00
2019-02-02T06:23:49.522Z,38.65
2019-02-02T06:26:17.644Z,46.75
2019-02-02T06:28:45.764Z,42.50
2019-02-02T06:31:13.912Z,38.33
2019-02-02T06:33:42.009Z,43.33
2019-02-02T06:36:10.021Z,48.92
2019-02-02T06:38:38.133Z,36.60
2019-02-02T06:41:06.166Z,36.30
2019-02-02T06:43:34.191Z,36.93
2019-02-02T06:46:02.256Z,38.38
2019-02-02T06:48:30.272Z,35.33
2019-02-02T06:50:58.360Z,28.65
2019-02-02T06:53:26.404Z,37.42
2019-02-02T06:55:54.462Z,28.25
2019-02-02T06:58:22.678Z,34.15
2019-02-02T07:00:50.718Z,50.60
2019-02-02T07:03:18.806Z,48.78
2019-02-02T07:05:46.878Z,35.33
2019-02-02T07:08:14.893Z,31.68
2019-02-02T07:10:42.980Z,37.13
2019-02-02T07:13:10.982Z,34.53
2019-02-02T07:15:39.051Z,37.00
2019-02-02T07:18:07.135Z,45.92
2019-02-02T07:20:35.430Z,44.00
2019-02-02T07:23:03.469Z,30.43
2019-02-02T07:25:31.445Z,39.10
2019-02-02T07:27:59.602Z,42.45
2019-02-02T07:30:29.471Z,38.35
2019-02-02T07:32:57.434Z,42.77
2019-02-02T07:35:25.410Z,44.73
2019-02-02T07:37:53.421Z,49.13
2019-02-02T07:40:21.479Z,84.25
2019-02-02T07:42:49.523Z,56.28
2019-02-02T07:45:19.777Z,49.63
2019-02-02T07:47:47.828Z,50.70
2019-02-02T07:50:16.026Z,49.23
2019-02-02T07:52:44.077Z,42.15
2019-02-02T07:55:12.999Z,45.43
2019-02-02T07:57:41.017Z,32.48
2019-02-02T08:00:40.383Z,39.45
2019-02-02T08:02:59.055Z,39.97
2019-02-02T08:05:27.182Z,30.65
2019-02-02T08:07:55.301Z,46.00
2019-02-02T08:10:23.370Z,50.43
2019-02-02T08:12:51.363Z,36.40
2019-02-02T08:15:21.942Z,33.20
2019-02-02T08:17:50.044Z,41.23
2019-02-02T08:20:18.137Z,39.90
2019-02-02T08:22:46.216Z,43.80
2019-02-02T08:25:14.557Z,41.77
2019-02-02T08:27:42.645Z,41.88
2019-02-02T08:30:16.813Z,36.48
2019-02-02T08:32:45.255Z,38.95
2019-02-02T08:35:13.269Z,36.30
2019-02-02T08:37:41.371Z,36.38
2019-02-02T08:40:10.969Z,43.73
2019-02-02T08:42:38.990Z,44.73
2019-02-02T08:45:07.482Z,36.28
2019-02-02T08:47:35.651Z,44.75
2019-02-02T08:50:03.779Z,40.80
2019-02-02T08:52:31.849Z,44.18
2019-02-02T08:55:00.057Z,44.27
2019-02-02T08:57:28.756Z,42.20
2019-02-02T08:59:59.749Z,43.00
2019-02-02T09:02:26.581Z,48.40
2019-02-02T09:04:54.664Z,32.08
2019-02-02T09:07:22.800Z,41.18
2019-02-02T09:09:50.834Z,38.65
2019-02-02T09:12:18.982Z,43.20
2019-02-02T09:14:47.321Z,43.58
2019-02-02T09:17:15.423Z,42.70
2019-02-02T09:19:43.673Z,48.75
2019-02-02T09:22:12.208Z,49.03
2019-02-02T09:24:40.269Z,50.33
2019-02-02T09:27:08.288Z,39.18
2019-02-02T09:29:36.396Z,39.50
2019-02-02T09:32:04.614Z,46.92
2019-02-02T09:34:32.705Z,54.25
2019-02-02T09:37:00.975Z,44.45
2019-02-02T09:39:28.947Z,49.90
2019-02-02T09:41:56.989Z,49.35
2019-02-02T09:44:25.105Z,44.63
2019-02-02T09:46:53.187Z,52.53
2019-02-02T09:49:21.403Z,51.28
2019-02-02T09:51:49.712Z,46.05
2019-02-02T09:54:26.438Z,48.90
2019-02-02T09:56:48.002Z,48.83
2019-02-02T09:59:16.118Z,47.45
2019-02-02T10:01:44.272Z,42.90
2019-02-02T10:04:12.364Z,45.70
2019-02-02T10:06:40.844Z,44.95
2019-02-02T10:09:09.531Z,43.10
2019-02-02T10:11:37.625Z,42.78
2019-02-02T10:14:05.697Z,46.68
2019-02-02T10:16:34.164Z,36.93
2019-02-02T10:19:02.343Z,46.90
2019-02-02T10:21:30.406Z,51.83
2019-02-02T10:23:59.338Z,42.43
2019-02-02T10:26:27.310Z,55.05
2019-02-02T10:28:55.362Z,43.90
2019-02-02T10:31:23.468Z,48.70
2019-02-02T10:33:51.539Z,43.40
2019-02-02T10:36:20.153Z,40.70
2019-02-02T10:38:49.469Z,38.43
2019-02-02T10:41:17.496Z,47.38
2019-02-02T10:43:45.803Z,51.68
2019-02-02T10:46:13.894Z,42.58
2019-02-02T10:48:42.137Z,37.93
2019-02-02T10:51:10.173Z,42.35
2019-02-02T10:53:43.179Z,42.30
2019-02-02T10:56:13.717Z,42.60
2019-02-02T10:58:42.144Z,40.48
2019-02-02T11:01:10.353Z,46.85
2019-02-02T11:03:38.359Z,38.13
2019-02-02T11:06:06.646Z,48.28
2019-02-02T11:08:34.700Z,41.65
2019-02-02T11:11:02.999Z,35.28
2019-02-02T11:13:31.398Z,51.55
2019-02-02T11:15:59.898Z,45.15
2019-02-02T11:18:28.073Z,57.83
2019-02-02T11:20:56.233Z,56.02
2019-02-02T11:23:24.309Z,55.30
2019-02-02T11:25:52.595Z,51.65
2019-02-02T11:28:20.636Z,48.13
2019-02-02T11:30:48.874Z,44.95
2019-02-02T11:33:17.093Z,47.38
2019-02-02T11:35:45.239Z,52.20
2019-02-02T11:38:13.450Z,45.12
2019-02-02T11:40:41.609Z,55.95
2019-02-02T11:43:09.679Z,51.15
2019-02-02T11:45:38.092Z,48.40
2019-02-02T11:48:06.329Z,58.75
2019-02-02T11:50:34.545Z,48.05
2019-02-02T11:53:02.646Z,44.55
2019-02-02T11:55:30.790Z,51.02
2019-02-02T11:57:58.942Z,46.55
2019-02-02T12:00:44.979Z,47.93
2019-02-02T12:03:13.413Z,48.20
2019-02-02T12:05:41.548Z,44.18
2019-02-02T12:08:09.708Z,44.13
2019-02-02T12:10:37.898Z,45.10
2019-02-02T12:13:06.182Z,44.85
2019-02-02T12:15:34.455Z,42.60
2019-02-02T12:18:02.807Z,41.55
2019-02-02T12:20:33.135Z,51.33
2019-02-02T12:23:01.103Z,46.67
2019-02-02T12:25:29.563Z,45.78
2019-02-02T12:27:57.642Z,46.98
2019-02-02T12:30:34.126Z,44.80
2019-02-02T12:33:03.267Z,46.23
2019-02-02T12:35:32.396Z,44.48
2019-02-02T12:38:00.531Z,52.05
2019-02-02T12:40:29.566Z,47.80
2019-02-02T12:42:57.704Z,52.15
2019-02-02T12:45:32.387Z,48.17
2019-02-02T12:48:00.540Z,45.88
2019-02-02T12:50:28.667Z,41.02
2019-02-02T12:52:56.956Z,47.25
2019-02-02T12:55:26.114Z,46.48
2019-02-02T12:57:54.287Z,46.45
2019-02-02T13:00:22.581Z,41.83
2019-02-02T13:02:50.605Z,50.80
2019-02-02T13:05:19.521Z,41.73
2019-02-02T13:07:47.809Z,47.25
2019-02-02T13:10:24.253Z,42.78
2019-02-02T13:12:50.903Z,45.50
2019-02-02T13:15:19.450Z,47.23
2019-02-02T13:17:47.557Z,58.28
2019-02-02T13:20:15.742Z,88.90
2019-02-02T13:22:44.291Z,111.37
2019-02-02T13:25:14.502Z,64.72
2019-02-02T13:27:42.583Z,57.73
2019-02-02T13:30:14.060Z,47.65
2019-02-02T13:32:49.345Z,66.33
2019-02-02T13:35:13.382Z,51.87
2019-02-02T13:37:41.526Z,49.58
2019-02-02T13:40:12.506Z,46.77
2019-02-02T13:42:40.738Z,45.63
2019-02-02T13:45:09.302Z,45.10
2019-02-02T13:47:37.615Z,51.15
2019-02-02T13:50:07.565Z,51.45
2019-02-02T13:52:35.945Z,38.65
2019-02-02T13:55:04.501Z,54.93
2019-02-02T13:57:53.403Z,50.67
2019-02-02T14:00:24.019Z,52.67
2019-02-02T14:03:02.436Z,53.05
2019-02-02T14:05:22.116Z,50.70
2019-02-02T14:07:50.243Z,56.88
2019-02-02T14:10:20.565Z,54.42
2019-02-02T14:12:49.069Z,49.77
2019-02-02T14:15:17.247Z,61.08
2019-02-02T14:17:45.508Z,47.13
2019-02-02T14:20:13.983Z,49.48
2019-02-02T14:22:42.597Z,57.88
2019-02-02T14:25:11.066Z,49.90
2019-02-02T14:27:39.242Z,49.63
2019-02-02T14:30:11.234Z,47.17
2019-02-02T14:32:39.406Z,50.40
2019-02-02T14:35:08.529Z,39.45
2019-02-02T14:37:36.664Z,45.67
2019-02-02T14:40:05.849Z,43.85
2019-02-02T14:42:34.151Z,52.05
2019-02-02T14:45:02.398Z,59.30
2019-02-02T14:47:30.476Z,54.10
2019-02-02T14:49:58.866Z,53.75
2019-02-02T14:52:27.161Z,55.75
2019-02-02T14:54:55.657Z,59.98
2019-02-02T14:57:23.714Z,67.32
2019-02-02T14:59:51.957Z,62.08
2019-02-02T15:02:20.247Z,46.15
2019-02-02T15:04:48.523Z,53.98
2019-02-02T15:07:16.819Z,55.25
2019-02-02T15:09:45.025Z,66.33
2019-02-02T15:12:13.351Z,72.27
2019-02-02T15:14:41.663Z,67.55
2019-02-02T15:17:10.153Z,72.08
2019-02-02T15:19:38.584Z,50.88
2019-02-02T15:22:06.741Z,53.28
2019-02-02T15:24:35.195Z,51.42
2019-02-02T15:27:03.599Z,54.83
2019-02-02T15:29:31.892Z,53.35
2019-02-02T15:32:00.131Z,59.73
2019-02-02T15:34:28.640Z,59.08
2019-02-02T15:36:56.817Z,56.73
2019-02-02T15:39:25.027Z,56.77
2019-02-02T15:41:53.396Z,72.35
2019-02-02T15:44:21.510Z,66.45
2019-02-02T15:46:49.739Z,66.40
2019-02-02T15:49:20.447Z,63.02
2019-02-02T15:54:16.678Z,78.10
2019-02-02T15:56:45.005Z,81.45
2019-02-02T15:59:13.438Z,80.00
2019-02-02T16:01:41.777Z,74.53
2019-02-02T16:04:10.037Z,76.17
2019-02-02T16:06:38.840Z,83.37
2019-02-02T16:09:09.653Z,52.53
2019-02-02T16:14:05.894Z,61.65
2019-02-02T16:16:34.154Z,87.90
2019-02-02T16:19:03.252Z,86.40
2019-02-02T16:21:31.644Z,85.42
2019-02-02T16:24:00.277Z,92.08
2019-02-02T16:26:29.590Z,74.75
2019-02-02T16:28:58.608Z,79.37
2019-02-02T16:31:27.116Z,90.80
2019-02-02T16:34:02.214Z,78.80
2019-02-02T16:36:25.435Z,99.15
2019-02-02T16:38:53.613Z,76.17
2019-02-02T16:41:21.779Z,73.25
2019-02-02T16:43:50.218Z,92.10
2019-02-02T16:46:19.139Z,70.83
2019-02-02T16:48:47.684Z,75.52
2019-02-02T16:51:16.074Z,70.40
2019-02-02T16:53:44.499Z,72.45
2019-02-02T16:56:13.435Z,63.30
2019-02-02T16:58:42.248Z,56.08
2019-02-02T17:01:11.384Z,60.23
2019-02-02T17:03:39.932Z,59.55
2019-02-02T17:06:08.918Z,69.50
2019-02-02T17:08:37.503Z,63.63
2019-02-02T17:11:06.498Z,65.30
2019-02-02T17:13:34.930Z,71.45
2019-02-02T17:16:03.196Z,69.80
2019-02-02T17:18:31.764Z,67.97
2019-02-02T17:20:59.954Z,75.57
2019-02-02T17:23:28.078Z,82.00
2019-02-02T17:25:56.353Z,72.62
2019-02-02T17:28:24.551Z,77.20
2019-02-02T17:30:53.880Z,77.40
2019-02-02T17:33:22.035Z,87.30
2019-02-02T17:35:50.502Z,64.10
2019-02-02T17:38:18.855Z,86.63
2019-02-02T17:40:47.797Z,91.47
2019-02-02T17:43:17.056Z,90.83
2019-02-02T17:45:47.222Z,69.87
2019-02-02T17:48:15.495Z,91.63
2019-02-02T17:50:44.310Z,77.92
2019-02-02T17:53:14.772Z,70.83
2019-02-02T17:55:43.682Z,73.33
2019-02-02T17:58:13.448Z,74.82
2019-02-02T18:00:57.749Z,80.03
2019-02-02T18:03:26.054Z,74.60
2019-02-02T18:05:54.844Z,79.87
2019-02-02T18:08:23.573Z,83.52
2019-02-02T18:10:52.235Z,65.83
2019-02-02T18:13:20.884Z,96.00
2019-02-02T18:15:49.450Z,73.97
2019-02-02T18:18:18.025Z,56.45
2019-02-02T18:20:46.624Z,78.85
2019-02-02T18:23:18.110Z,83.97
2019-02-02T18:25:45.587Z,77.87
2019-02-02T18:28:14.022Z,80.22
2019-02-02T18:30:42.663Z,69.05
2019-02-02T18:33:11.118Z,89.25
2019-02-02T18:38:13.760Z,85.95
2019-02-02T18:40:42.268Z,81.60
2019-02-02T18:43:10.438Z,87.95
2019-02-02T18:45:39.181Z,100.67
2019-02-02T18:48:07.937Z,60.65
2019-02-02T18:50:36.462Z,62.17
2019-02-02T18:53:04.974Z,75.70
2019-02-02T18:55:57.884Z,87.90
2019-02-02T18:58:26.519Z,84.70
2019-02-02T19:00:54.818Z,76.33
2019-02-02T19:03:23.123Z,66.53
2019-02-02T19:05:51.487Z,67.87
2019-02-02T19:08:20.004Z,75.42
2019-02-02T19:10:48.316Z,81.97
2019-02-02T19:13:16.967Z,68.57
2019-02-02T19:15:45.172Z,72.58
2019-02-02T19:18:13.666Z,76.07
2019-02-02T19:20:41.946Z,78.25
2019-02-02T19:23:10.562Z,85.30
2019-02-02T19:25:39.895Z,72.70
2019-02-02T19:28:11.331Z,58.65
2019-02-02T19:30:41.278Z,70.30
2019-02-02T19:33:12.656Z,72.75
2019-02-02T19:35:41.628Z,80.50
2019-02-02T19:38:11.601Z,66.60
2019-02-02T19:40:40.698Z,77.53
2019-02-02T19:43:09.965Z,76.95
2019-02-02T19:45:40.138Z,66.12
2019-02-02T19:48:09.762Z,82.53
2019-02-02T19:50:39.035Z,89.70
2019-02-02T19:53:09.270Z,66.33
2019-02-02T19:55:39.311Z,62.93
2019-02-02T19:58:10.821Z,52.45
2019-02-02T20:00:40.261Z,71.53
2019-02-02T20:03:11.363Z,72.95
2019-02-02T20:05:41.093Z,85.95
2019-02-02T20:08:17.229Z,72.08
2019-02-02T20:10:46.331Z,80.38
2019-02-02T20:13:15.236Z,89.58
2019-02-02T20:15:44.599Z,76.95
2019-02-02T20:18:13.782Z,84.20
2019-02-02T20:20:43.779Z,72.20
2019-02-02T20:23:12.757Z,72.15
2019-02-02T20:25:42.413Z,103.25
2019-02-02T20:28:11.008Z,87.27
2019-02-02T20:30:42.922Z,85.80
2019-02-02T20:33:12.020Z,103.20
2019-02-02T20:35:42.394Z,58.78
2019-02-02T20:40:40.831Z,65.95
2019-02-02T20:43:11.006Z,107.37
2019-02-02T20:45:40.737Z,115.17
2019-02-02T20:48:10.320Z,102.32
2019-02-02T20:50:39.798Z,114.20
2019-02-02T20:53:09.180Z,104.07
2019-02-02T20:55:43.505Z,107.55
2019-02-02T20:58:13.081Z,135.93
2019-02-02T21:00:42.503Z,130.70
2019-02-02T21:03:14.158Z,152.15
2019-02-02T21:05:51.939Z,147.32
2019-02-02T21:08:15.178Z,132.43
2019-02-02T21:10:44.849Z,144.07
2019-02-02T21:13:14.284Z,150.50
2019-02-02T21:15:43.840Z,135.72
2019-02-02T21:18:13.450Z,137.57
2019-02-02T21:20:44.542Z,166.22
2019-02-02T21:23:14.040Z,176.97
2019-02-02T21:25:44.646Z,168.62
2019-02-02T21:28:14.202Z,157.25
2019-02-02T21:30:46.607Z,149.95
2019-02-02T21:33:15.643Z,164.35
2019-02-02T21:35:45.360Z,133.97
2019-02-02T21:38:14.911Z,136.20
2019-02-02T21:40:43.573Z,135.00
2019-02-02T21:43:12.720Z,129.47
2019-02-02T21:45:41.939Z,149.07
2019-02-02T21:48:11.950Z,151.18
2019-02-02T21:50:40.897Z,125.55
2019-02-02T21:53:10.235Z,137.28
2019-02-02T21:55:38.902Z,116.88
2019-02-02T21:58:09.250Z,131.78
2019-02-02T22:00:45.536Z,121.60
2019-02-02T22:03:14.775Z,140.10
2019-02-02T22:05:43.987Z,130.00
2019-02-02T22:08:13.039Z,119.70
2019-02-02T22:10:41.759Z,158.18
2019-02-02T22:13:10.529Z,119.93
2019-02-02T22:15:41.043Z,127.42
2019-02-02T22:18:09.622Z,154.53
2019-02-02T22:20:40.990Z,88.92
2019-02-02T22:23:10.897Z,68.80
2019-02-02T22:25:39.215Z,135.57
2019-02-02T22:28:08.462Z,115.90
2019-02-02T22:30:40.110Z,135.95
2019-02-02T22:33:08.727Z,115.62
2019-02-02T22:35:37.144Z,118.28
2019-02-02T22:38:06.155Z,145.50
2019-02-02T22:40:35.526Z,108.75
2019-02-02T22:43:04.494Z,121.02
2019-02-02T22:45:33.744Z,125.72
2019-02-02T22:48:02.354Z,138.18
2019-02-02T22:50:31.278Z,125.00
2019-02-02T22:52:59.716Z,139.57
2019-02-02T22:55:29.687Z,130.03
2019-02-02T22:58:00.384Z,123.20
2019-02-02T23:00:55.617Z,124.82
2019-02-02T23:03:27.732Z,110.55
2019-02-02T23:06:39.360Z,127.40
2019-02-02T23:09:56.033Z,112.28
2019-02-02T23:15:53.715Z,127.85
2019-02-02T23:18:22.088Z,136.35
2019-02-02T23:20:50.581Z,138.35
2019-02-02T23:23:18.981Z,116.53
2019-02-02T23:25:47.159Z,120.82
2019-02-02T23:28:15.480Z,105.58
2019-02-02T23:30:43.788Z,119.25
2019-02-02T23:33:11.970Z,115.17
2019-02-02T23:35:40.497Z,115.72
2019-02-02T23:38:08.708Z,130.60
2019-02-02T23:40:36.804Z,109.10
2019-02-02T23:43:11.364Z,127.65
2019-02-02T23:45:35.250Z,125.02
2019-02-02T23:48:03.562Z,109.10
2019-02-02T23:50:31.642Z,124.72
2019-02-02T23:53:00.126Z,129.07
2019-02-02T23:55:28.486Z,104.97
2019-02-02T23:57:56.567Z,125.15
